createdAt,value
2023-01-12T00:01:52.446Z,101620.02
2023-01-12T00:04:19.585Z,101622.81
2023-01-12T00:06:46.697Z,101627.63
2023-01-12T00:09:16.041Z,101629.02
2023-01-12T00:11:43.257Z,101623.06
2023-01-12T00:17:46.207Z,101626.50
2023-01-12T00:20:13.221Z,101631.98
2023-01-12T00:22:40.159Z,101623.41
2023-01-12T00:25:07.813Z,101621.67
2023-01-12T00:27:34.758Z,101623.87
2023-01-12T00:30:01.710Z,101622.83
2023-01-12T00:32:28.753Z,101626.73
2023-01-12T00:34:55.797Z,101630.63
2023-01-12T00:37:23.051Z,101630.26
2023-01-12T00:40:02.563Z,101628.34
2023-01-12T00:42:48.633Z,101626.94
2023-01-12T00:45:21.673Z,101626.89
2023-01-12T00:47:48.620Z,101626.70
2023-01-12T00:50:16.889Z,101624.45
2023-01-12T00:52:45.684Z,101623.06
2023-01-12T00:55:12.735Z,101625.16
2023-01-12T00:57:40.292Z,101621.98
2023-01-12T01:00:08.134Z,101626.27
2023-01-12T01:02:37.407Z,101627.01
2023-01-12T01:05:04.816Z,101625.52
2023-01-12T01:07:31.968Z,101626.92
2023-01-12T01:09:58.918Z,101631.57
2023-01-12T01:12:25.971Z,101633.48
2023-01-12T01:14:53.825Z,101633.32
2023-01-12T01:17:20.768Z,101633.67
2023-01-12T01:19:48.535Z,101637.27
2023-01-12T01:22:15.578Z,101635.55
2023-01-12T01:24:42.423Z,101639.64
2023-01-12T01:27:09.297Z,101643.73
2023-01-12T01:29:36.332Z,101637.54
2023-01-12T01:32:03.461Z,101633.73
2023-01-12T01:34:30.407Z,101638.83
2023-01-12T01:36:57.354Z,101639.65
2023-01-12T01:39:24.299Z,101643.89
2023-01-12T01:41:51.560Z,101654.81
2023-01-12T01:44:33.139Z,101654.96
2023-01-12T01:47:03.062Z,101658.70
2023-01-12T01:49:41.881Z,101657.50
2023-01-12T01:52:12.441Z,101658.67
2023-01-12T01:54:59.016Z,101657.13
2023-01-12T01:57:29.050Z,101656.19
2023-01-12T01:59:55.985Z,101656.25
2023-01-12T02:02:23.698Z,101658.85
2023-01-12T02:04:50.660Z,101660.97
2023-01-12T02:07:17.530Z,101655.71
2023-01-12T02:09:44.489Z,101657.30
2023-01-12T02:12:30.158Z,101654.60
2023-01-12T04:18:07.005Z,101585.08
2023-01-12T04:20:34.523Z,101580.80
2023-01-12T04:23:01.674Z,101577.20
2023-01-12T04:25:28.623Z,101568.96
2023-01-12T04:27:57.167Z,101560.39
2023-01-12T04:30:27.298Z,101554.70
2023-01-12T04:32:55.292Z,101546.43
2023-01-12T04:35:24.391Z,101541.24
2023-01-12T04:37:51.639Z,101536.40
2023-01-12T04:40:18.900Z,101534.83
2023-01-12T04:43:07.270Z,101533.45
2023-01-12T04:45:37.168Z,101534.48
2023-01-12T04:48:05.281Z,101528.34
2023-01-12T04:50:32.397Z,101524.92
2023-01-12T04:53:02.127Z,101530.95
2023-01-12T04:55:29.543Z,101529.77
2023-01-12T04:57:57.383Z,101533.40
2023-01-12T05:00:24.418Z,101537.86
2023-01-12T05:02:58.173Z,101545.77
2023-01-12T05:05:26.086Z,101543.91
2023-01-12T05:08:11.714Z,101540.98
2023-01-12T05:10:38.657Z,101542.03
2023-01-12T05:13:07.753Z,101543.58
2023-01-12T05:15:34.705Z,101545.48
2023-01-12T05:18:01.642Z,101544.45
2023-01-12T05:20:28.435Z,101546.52
2023-01-12T05:22:55.436Z,101547.02
2023-01-12T05:25:22.684Z,101543.57
2023-01-12T05:27:49.631Z,101547.31
2023-01-12T05:30:16.655Z,101543.67
2023-01-12T05:32:43.931Z,101543.98
2023-01-12T05:35:10.845Z,101540.52
2023-01-12T05:37:37.684Z,101539.79
2023-01-12T05:40:05.395Z,101539.10
2023-01-12T05:42:51.065Z,101537.38
2023-01-12T05:45:18.011Z,101539.62
2023-01-12T05:47:44.970Z,101541.52
2023-01-12T05:50:11.806Z,101542.91
2023-01-12T05:52:38.753Z,101540.72
2023-01-12T05:55:06.302Z,101541.94
2023-01-12T05:57:33.248Z,101540.39
2023-01-12T06:00:00.205Z,101540.90
2023-01-12T06:02:27.252Z,101539.38
2023-01-12T06:04:54.329Z,101540.77
2023-01-12T06:07:21.265Z,101540.45
2023-01-12T06:09:48.124Z,101544.57
2023-01-12T06:12:33.967Z,101548.69
2023-01-12T06:15:01.019Z,101543.72
2023-01-12T06:17:27.961Z,101545.27
2023-01-12T06:19:54.916Z,101540.10
2023-01-12T06:22:21.952Z,101545.03
2023-01-12T06:24:49.385Z,101540.70
2023-01-12T06:27:16.974Z,101540.31
2023-01-12T06:29:44.017Z,101537.33
2023-01-12T06:32:13.216Z,101544.12
2023-01-12T06:34:40.161Z,101544.08
2023-01-12T06:37:12.086Z,101546.64
2023-01-12T06:39:41.396Z,101541.30
2023-01-12T06:42:27.115Z,101540.44
2023-01-12T06:44:54.770Z,101543.35
2023-01-12T06:47:22.329Z,101542.50
2023-01-12T06:49:51.732Z,101540.80
2023-01-12T06:52:23.390Z,101542.19
2023-01-12T06:54:51.461Z,101547.85
2023-01-12T06:57:18.418Z,101556.81
2023-01-12T06:59:45.664Z,101561.98
2023-01-12T07:02:13.580Z,101561.15
2023-01-12T07:04:41.031Z,101554.98
2023-01-12T07:07:08.449Z,101556.89
2023-01-12T07:09:35.693Z,101560.83
2023-01-12T07:12:03.563Z,101565.42
2023-01-12T07:14:30.609Z,101563.12
2023-01-12T07:16:57.553Z,101561.33
2023-01-12T07:19:24.509Z,101556.13
2023-01-12T07:21:51.441Z,101548.00
2023-01-12T07:24:18.603Z,101544.84
2023-01-12T07:26:48.097Z,101542.75
2023-01-12T07:29:15.247Z,101542.73
2023-01-12T07:31:42.295Z,101548.94
2023-01-12T07:34:09.241Z,101546.35
2023-01-12T07:36:36.296Z,101540.52
2023-01-12T07:39:03.340Z,101540.54
2023-01-12T07:41:49.022Z,101537.78
2023-01-12T07:44:16.290Z,101544.83
2023-01-12T07:46:43.718Z,101543.81
2023-01-12T07:49:10.880Z,101539.53
2023-01-12T07:51:37.827Z,101540.75
2023-01-12T07:54:04.771Z,101537.50
2023-01-12T07:56:31.719Z,101539.58
2023-01-12T08:11:19.736Z,101535.52
2023-01-12T08:13:46.887Z,101536.21
2023-01-12T08:16:19.774Z,101534.57
2023-01-12T08:18:53.450Z,101531.27
2023-01-12T08:21:21.853Z,101531.21
2023-01-12T08:23:50.438Z,101529.05
2023-01-12T08:26:24.151Z,101529.94
2023-01-12T08:28:58.151Z,101520.13
2023-01-12T08:31:25.232Z,101512.91
2023-01-12T08:33:53.683Z,101512.36
2023-01-12T08:36:20.695Z,101509.02
2023-01-12T08:38:48.805Z,101505.52
2023-01-12T08:41:34.074Z,101506.59
2023-01-12T08:44:08.541Z,101507.14
2023-01-12T08:46:38.978Z,101506.86
2023-01-12T08:49:11.504Z,101501.15
2023-01-12T08:51:41.315Z,101499.00
2023-01-12T08:54:09.446Z,101496.29
2023-01-12T08:56:36.737Z,101499.23
2023-01-12T08:59:04.197Z,101497.39
2023-01-12T09:01:31.265Z,101504.15
2023-01-12T09:03:58.703Z,101506.92
2023-01-12T09:06:26.874Z,101509.73
2023-01-12T09:08:58.077Z,101511.50
2023-01-12T09:11:25.511Z,101507.09
2023-01-12T09:13:52.526Z,101502.44
2023-01-12T09:16:20.276Z,101504.08
2023-01-12T09:18:47.455Z,101501.06
2023-01-12T09:21:16.129Z,101507.48
2023-01-12T09:23:43.580Z,101503.27
2023-01-12T09:26:11.195Z,101506.81
2023-01-12T09:28:39.111Z,101502.45
2023-01-12T09:31:10.731Z,101498.34
2023-01-12T09:33:38.531Z,101499.44
2023-01-12T09:36:07.958Z,101499.31
2023-01-12T09:38:35.810Z,101497.80
2023-01-12T09:41:41.349Z,101496.14
2023-01-12T09:45:22.844Z,101495.17
2023-01-12T09:47:53.967Z,101494.20
2023-01-12T09:50:28.373Z,101498.71
2023-01-12T09:52:58.117Z,101507.48
2023-01-12T09:55:26.410Z,101509.20
2023-01-12T09:57:53.450Z,101507.30
2023-01-12T10:00:20.710Z,101504.48
2023-01-12T10:02:54.834Z,101506.58
2023-01-12T10:05:44.278Z,101507.67
2023-01-12T10:08:35.090Z,101499.84
2023-01-12T10:11:11.350Z,101494.25
2023-01-12T10:13:53.586Z,101486.67
2023-01-12T10:16:49.917Z,101482.75
2023-01-12T10:19:32.295Z,101484.35
2023-01-12T10:22:00.573Z,101478.69
2023-01-12T10:24:27.524Z,101478.16
2023-01-12T10:27:03.289Z,101474.55
2023-01-12T10:29:31.354Z,101473.58
2023-01-12T10:31:58.318Z,101469.68
2023-01-12T10:34:25.176Z,101466.30
2023-01-12T10:36:58.010Z,101464.27
2023-01-12T10:39:40.735Z,101464.98
2023-01-12T10:42:55.527Z,101467.45
2023-01-12T10:45:23.679Z,101468.18
2023-01-12T10:47:53.663Z,101471.80
2023-01-12T10:50:23.710Z,101467.81
2023-01-12T10:52:58.594Z,101467.02
2023-01-12T10:55:25.729Z,101467.42
2023-01-12T10:57:53.047Z,101460.94
2023-01-12T11:00:22.442Z,101459.29
2023-01-12T11:02:50.253Z,101457.36
2023-01-12T11:05:26.474Z,101461.83
2023-01-12T11:07:53.416Z,101460.98
2023-01-12T11:10:27.539Z,101461.17
2023-01-12T11:13:03.716Z,101463.92
2023-01-12T11:15:31.359Z,101463.80
2023-01-12T11:18:04.455Z,101459.02
2023-01-12T11:20:38.134Z,101459.73
2023-01-12T11:23:09.492Z,101453.94
2023-01-12T11:25:48.017Z,101449.89
2023-01-12T11:28:23.886Z,101445.30
2023-01-12T11:30:53.803Z,101439.98
2023-01-12T11:33:30.450Z,101442.59
2023-01-12T11:36:06.930Z,101437.09
2023-01-12T11:38:36.540Z,101433.63
2023-01-12T11:41:04.194Z,101433.29
2023-01-12T11:43:52.599Z,101426.57
2023-01-12T11:46:37.298Z,101433.33
2023-01-12T11:49:12.084Z,101435.05
2023-01-12T11:51:39.083Z,101433.52
2023-01-12T11:54:06.533Z,101435.63
2023-01-12T11:56:43.802Z,101435.83
2023-01-12T15:57:48.459Z,101433.47
2023-01-12T16:00:17.220Z,101432.57
2023-01-12T16:02:48.895Z,101436.54
2023-01-12T16:05:21.658Z,101436.40
2023-01-12T16:07:49.005Z,101436.64
2023-01-12T16:10:16.704Z,101441.48
2023-01-12T16:12:44.505Z,101438.45
2023-01-12T16:15:20.012Z,101438.60
2023-01-12T16:17:47.263Z,101438.33
2023-01-12T16:20:16.317Z,101436.20
2023-01-12T16:22:43.500Z,101435.41
2023-01-12T16:25:10.861Z,101429.30
2023-01-12T16:27:38.728Z,101427.52
2023-01-12T16:30:07.279Z,101432.63
2023-01-12T16:32:34.566Z,101431.95
2023-01-12T16:35:01.406Z,101426.45
2023-01-12T16:37:33.226Z,101418.93
2023-01-12T16:40:00.821Z,101414.67
2023-01-12T16:42:27.900Z,101420.73
2023-01-12T16:44:54.752Z,101422.33
2023-01-12T16:47:21.883Z,101418.76
2023-01-12T16:49:49.834Z,101412.80
2023-01-12T16:52:17.502Z,101410.97
2023-01-12T16:54:44.546Z,101408.42
2023-01-12T16:57:12.207Z,101405.88
2023-01-12T16:59:39.335Z,101399.41
2023-01-12T17:02:08.444Z,101393.81
2023-01-12T17:04:36.320Z,101393.87
2023-01-12T17:07:04.600Z,101393.92
2023-01-12T17:09:32.157Z,101392.59
2023-01-12T17:11:59.924Z,101391.93
2023-01-12T17:14:27.990Z,101390.90
2023-01-12T17:16:56.941Z,101385.41
2023-01-12T17:19:25.374Z,101383.45
2023-01-12T17:21:54.328Z,101377.99
2023-01-12T17:24:21.811Z,101368.77
2023-01-12T17:26:50.420Z,101373.98
2023-01-12T17:29:17.449Z,101374.33
2023-01-12T17:31:45.208Z,101377.49
2023-01-12T17:34:13.078Z,101381.25
2023-01-12T17:36:40.119Z,101384.68
2023-01-12T17:39:07.687Z,101389.52
2023-01-12T17:41:53.471Z,101392.84
2023-01-12T17:44:20.517Z,101391.01
2023-01-12T17:46:47.466Z,101390.73
2023-01-12T17:49:14.623Z,101391.48
2023-01-12T17:51:41.564Z,101386.73
2023-01-12T17:54:10.773Z,101387.52
2023-01-12T20:03:52.222Z,101376.56
2023-01-12T20:06:19.305Z,101376.52
2023-01-12T20:08:48.447Z,101374.45
2023-01-12T20:11:16.417Z,101374.50
2023-01-12T20:13:43.360Z,101378.69
2023-01-12T20:16:10.686Z,101384.26
2023-01-12T20:18:37.869Z,101379.15
2023-01-12T20:21:08.915Z,101378.52
2023-01-12T20:23:36.057Z,101374.28
2023-01-12T20:26:06.905Z,101373.64
2023-01-12T20:28:34.048Z,101379.16
2023-01-12T20:31:00.987Z,101383.14
2023-01-12T20:33:28.545Z,101382.65
2023-01-12T20:35:55.503Z,101385.44
2023-01-12T20:38:22.864Z,101388.56
2023-01-12T20:40:50.219Z,101387.48
2023-01-12T20:43:17.099Z,101386.86
2023-01-12T20:45:44.412Z,101383.82
2023-01-12T20:48:13.806Z,101384.73
2023-01-12T20:50:44.919Z,101386.13
2023-01-12T20:53:12.203Z,101384.18
2023-01-12T20:55:46.227Z,101381.55
2023-01-12T20:58:13.156Z,101385.66
2023-01-12T21:00:40.595Z,101383.95
2023-01-12T21:03:07.812Z,101376.07
2023-01-12T21:05:35.222Z,101377.16
2023-01-12T21:08:08.011Z,101374.30
2023-01-12T21:10:37.203Z,101378.32
2023-01-12T21:13:07.230Z,101376.82
2023-01-12T21:15:34.164Z,101375.33
2023-01-12T21:18:01.129Z,101373.31
2023-01-12T21:20:28.366Z,101376.11
2023-01-12T21:22:55.219Z,101377.52
2023-01-12T21:25:26.151Z,101378.60
2023-01-12T21:27:53.054Z,101380.02
2023-01-12T21:30:20.035Z,101379.38
2023-01-12T21:32:48.789Z,101383.02
2023-01-12T21:35:18.022Z,101382.89
2023-01-12T21:37:47.322Z,101386.45
2023-01-12T21:40:14.673Z,101388.03
2023-01-12T21:43:00.468Z,101390.33
2023-01-12T21:45:27.555Z,101386.11
2023-01-12T21:47:55.578Z,101384.47
2023-01-12T21:50:22.940Z,101381.95
2023-01-12T21:52:49.889Z,101384.44
2023-01-12T21:55:19.082Z,101380.46
2023-01-12T21:57:46.639Z,101373.40
2023-01-12T22:00:13.995Z,101368.08
2023-01-12T22:49:11.058Z,101350.73
2023-01-12T22:51:38.513Z,101354.89
2023-01-12T22:54:05.664Z,101349.61
2023-01-12T22:56:32.714Z,101346.92
2023-01-12T22:59:00.222Z,101349.89
2023-01-12T23:01:28.237Z,101348.50
2023-01-12T23:03:56.311Z,101352.34
2023-01-12T23:06:24.090Z,101351.88
2023-01-12T23:08:51.259Z,101352.11
2023-01-12T23:11:20.381Z,101349.58
2023-01-12T23:13:47.411Z,101353.23
2023-01-12T23:16:15.289Z,101353.97
2023-01-12T23:18:43.745Z,101356.13
2023-01-12T23:21:15.767Z,101357.48
2023-01-12T23:23:44.674Z,101354.19
2023-01-12T23:26:13.169Z,101354.76
2023-01-12T23:28:42.495Z,101347.09
2023-01-12T23:31:11.280Z,101349.21
2023-01-12T23:33:39.671Z,101342.93
2023-01-12T23:36:14.492Z,101339.73
2023-01-12T23:38:42.001Z,101336.55
2023-01-12T23:41:17.660Z,101333.89
2023-01-12T23:43:48.103Z,101333.09
2023-01-12T23:46:16.422Z,101330.92
2023-01-12T23:48:44.083Z,101329.81
2023-01-12T23:51:11.482Z,101325.41
2023-01-12T23:53:38.340Z,101324.59
2023-01-12T23:56:07.015Z,101322.38
2023-01-12T23:58:35.596Z,101327.24
